createdAt,value
2019-03-29T00:00:08.943Z,7.40
2019-03-29T00:02:39.806Z,7.40
2019-03-29T00:05:09.074Z,7.40
2019-03-29T00:07:40.014Z,7.40
2019-03-29T00:10:09.220Z,7.40
2019-03-29T00:12:38.463Z,7.30
2019-03-29T00:15:08.082Z,7.30
2019-03-29T00:17:37.582Z,7.20
2019-03-29T00:20:07.626Z,7.20
2019-03-29T00:22:36.881Z,7.20
2019-03-29T00:25:07.095Z,7.10
2019-03-29T00:27:36.630Z,7.10
2019-03-29T00:30:05.899Z,7.10
2019-03-29T00:32:35.147Z,7.10
2019-03-29T00:35:06.354Z,7.10
2019-03-29T00:37:35.593Z,7.10
2019-03-29T00:40:07.005Z,7.00
2019-03-29T00:42:36.278Z,7.00
2019-03-29T00:45:07.228Z,7.00
2019-03-29T00:47:36.470Z,7.00
2019-03-29T00:50:07.075Z,7.00
2019-03-29T00:52:36.529Z,6.90
2019-03-29T00:55:06.646Z,6.90
2019-03-29T00:57:35.918Z,6.90
2019-03-29T04:02:36.918Z,5.70
2019-03-29T04:05:07.369Z,5.70
2019-03-29T04:07:38.402Z,5.70
2019-03-29T04:10:07.625Z,5.70
2019-03-29T04:12:36.869Z,5.60
2019-03-29T04:15:06.408Z,5.60
2019-03-29T04:17:35.642Z,5.60
2019-03-29T04:20:06.555Z,5.60
2019-03-29T04:22:35.800Z,5.60
2019-03-29T04:25:06.513Z,5.60
2019-03-29T04:27:35.766Z,5.60
2019-03-29T04:30:05.770Z,5.60
2019-03-29T04:32:35.005Z,5.60
2019-03-29T04:35:04.379Z,5.60
2019-03-29T04:37:33.595Z,5.60
2019-03-29T04:40:08.094Z,5.60
2019-03-29T04:42:34.313Z,5.50
2019-03-29T04:45:04.945Z,5.60
2019-03-29T04:47:34.456Z,5.60
2019-03-29T04:50:05.575Z,5.50
2019-03-29T04:52:34.821Z,5.60
2019-03-29T04:55:05.604Z,5.50
2019-03-29T04:57:34.870Z,5.50
2019-03-29T05:00:05.755Z,5.50
2019-03-29T05:02:35.023Z,5.50
2019-03-29T05:05:05.801Z,5.50
2019-03-29T05:07:37.248Z,5.50
2019-03-29T05:10:20.259Z,5.50
2019-03-29T05:12:38.614Z,5.50
2019-03-29T05:15:07.857Z,5.50
2019-03-29T05:17:37.190Z,5.50
2019-03-29T05:20:06.884Z,5.50
2019-03-29T05:22:36.146Z,5.50
2019-03-29T05:25:05.862Z,5.50
2019-03-29T05:27:35.122Z,5.50
2019-03-29T05:30:05.611Z,5.50
2019-03-29T05:32:34.869Z,5.50
2019-03-29T05:35:05.750Z,5.50
2019-03-29T05:37:35.017Z,5.60
2019-03-29T05:40:06.597Z,5.60
2019-03-29T05:42:35.870Z,5.60
2019-03-29T05:45:06.691Z,5.60
2019-03-29T05:47:35.951Z,5.70
2019-03-29T05:50:06.830Z,5.70
2019-03-29T05:52:36.098Z,5.70
2019-03-29T05:55:06.534Z,5.80
2019-03-29T05:57:35.798Z,5.80
2019-03-29T06:00:09.801Z,5.80
2019-03-29T06:02:39.125Z,5.90
2019-03-29T06:05:08.367Z,5.90
2019-03-29T06:07:37.629Z,5.90
2019-03-29T06:10:06.875Z,6.00
2019-03-29T06:12:36.203Z,6.00
2019-03-29T06:15:06.486Z,6.00
2019-03-29T06:17:48.074Z,6.10
2019-03-29T06:20:06.632Z,6.10
2019-03-29T06:22:35.889Z,6.20
2019-03-29T06:25:06.700Z,6.20
2019-03-29T06:27:35.976Z,6.30
2019-03-29T06:30:06.455Z,6.40
2019-03-29T06:32:35.724Z,6.40
2019-03-29T06:35:07.693Z,6.50
2019-03-29T06:37:37.670Z,6.50
2019-03-29T06:40:09.839Z,6.60
2019-03-29T06:42:39.082Z,6.70
2019-03-29T06:45:09.973Z,6.70
2019-03-29T06:47:39.224Z,6.80
2019-03-29T06:50:08.486Z,6.90
2019-03-29T06:52:37.726Z,7.00
2019-03-29T06:55:06.998Z,7.10
2019-03-29T06:57:36.238Z,7.10
2019-03-29T07:00:05.774Z,7.20
2019-03-29T07:02:35.020Z,7.30
2019-03-29T07:05:05.525Z,7.40
2019-03-29T07:07:34.762Z,7.50
2019-03-29T07:10:05.975Z,7.60
2019-03-29T07:12:36.186Z,7.70
2019-03-29T07:15:08.374Z,7.80
2019-03-29T07:17:37.619Z,7.90
2019-03-29T07:20:07.251Z,7.90
2019-03-29T07:22:36.499Z,8.00
2019-03-29T07:25:07.869Z,8.10
2019-03-29T07:27:44.627Z,8.20
2019-03-29T07:30:08.062Z,8.30
2019-03-29T07:32:38.387Z,8.40
2019-03-29T07:35:07.646Z,8.50
2019-03-29T07:37:36.889Z,8.70
2019-03-29T07:40:06.159Z,8.80
2019-03-29T07:42:35.400Z,8.90
2019-03-29T07:45:10.057Z,9.00
2019-03-29T07:47:38.930Z,9.10
2019-03-29T07:50:08.199Z,9.20
2019-03-29T07:52:37.439Z,9.30
2019-03-29T07:55:07.338Z,9.40
2019-03-29T07:57:36.576Z,9.50
2019-03-29T08:00:07.235Z,9.60
2019-03-29T08:02:36.419Z,9.70
2019-03-29T08:05:06.244Z,9.80
2019-03-29T08:07:36.445Z,9.90
2019-03-29T08:10:06.275Z,9.90
2019-03-29T08:12:35.526Z,10.00
2019-03-29T08:15:09.268Z,10.10
2019-03-29T08:17:37.023Z,10.20
2019-03-29T08:20:37.571Z,10.20
2019-03-29T08:22:37.141Z,10.30
2019-03-29T08:25:06.411Z,10.40
2019-03-29T08:27:35.646Z,10.50
2019-03-29T08:30:05.549Z,10.50
2019-03-29T08:32:34.781Z,10.60
2019-03-29T08:35:05.687Z,10.70
2019-03-29T08:37:34.931Z,10.70
2019-03-29T08:40:04.835Z,10.80
2019-03-29T08:42:34.065Z,10.80
2019-03-29T08:45:04.062Z,10.90
2019-03-29T08:47:34.274Z,11.00
2019-03-29T08:50:05.499Z,11.00
2019-03-29T08:52:34.739Z,11.10
2019-03-29T08:55:05.714Z,11.10
2019-03-29T08:57:34.978Z,11.20
2019-03-29T09:00:06.254Z,11.20
2019-03-29T09:02:35.826Z,11.30
2019-03-29T09:05:05.439Z,11.30
2019-03-29T09:07:44.570Z,11.40
2019-03-29T09:10:08.893Z,11.40
2019-03-29T09:12:38.153Z,11.50
2019-03-29T09:15:07.389Z,11.50
2019-03-29T09:17:36.659Z,11.60
2019-03-29T09:20:05.907Z,11.60
2019-03-29T09:22:35.180Z,11.60
2019-03-29T09:25:05.454Z,11.70
2019-03-29T09:27:34.729Z,11.70
2019-03-29T09:30:05.577Z,11.80
2019-03-29T09:32:34.838Z,11.80
2019-03-29T09:35:05.115Z,11.90
2019-03-29T09:37:34.378Z,11.90
2019-03-29T09:40:04.654Z,12.00
2019-03-29T09:42:33.920Z,12.00
2019-03-29T09:45:03.830Z,12.10
2019-03-29T09:47:39.882Z,12.10
2019-03-29T09:50:06.312Z,12.20
2019-03-29T09:52:37.182Z,12.20
2019-03-29T09:55:06.427Z,12.20
2019-03-29T09:57:37.921Z,12.30
2019-03-29T10:00:17.901Z,12.30
2019-03-29T10:02:38.278Z,12.40
2019-03-29T10:05:07.511Z,12.40
2019-03-29T10:07:36.774Z,12.40
2019-03-29T10:10:25.443Z,12.50
2019-03-29T10:12:54.702Z,12.60
2019-03-29T10:15:23.947Z,12.60
2019-03-29T10:17:53.213Z,12.60
2019-03-29T10:20:23.429Z,12.70
2019-03-29T10:22:52.690Z,12.70
2019-03-29T10:25:21.933Z,12.80
2019-03-29T10:27:51.193Z,12.80
2019-03-29T10:30:46.682Z,12.80
2019-03-29T10:33:15.486Z,12.90
2019-03-29T10:35:52.153Z,12.90
2019-03-29T10:38:18.341Z,12.90
2019-03-29T10:40:46.478Z,13.00
2019-03-29T10:43:15.739Z,13.00
2019-03-29T10:45:44.979Z,13.10
2019-03-29T10:48:14.253Z,13.10
2019-03-29T10:50:43.491Z,13.20
2019-03-29T10:53:12.767Z,13.20
2019-03-29T10:55:42.003Z,13.20
2019-03-29T10:58:11.265Z,13.30
2019-03-29T11:00:40.950Z,13.30
2019-03-29T11:03:10.229Z,13.30
2019-03-29T11:05:39.450Z,13.40
2019-03-29T11:08:12.104Z,13.40
2019-03-29T11:10:40.718Z,13.40
2019-03-29T11:13:14.156Z,13.50
2019-03-29T11:15:40.833Z,13.50
2019-03-29T11:18:10.111Z,13.50
2019-03-29T11:20:39.354Z,13.60
2019-03-29T11:23:08.620Z,13.60
2019-03-29T11:25:37.858Z,13.60
2019-03-29T11:28:07.130Z,13.60
2019-03-29T11:30:42.458Z,13.70
2019-03-29T11:33:07.254Z,13.70
2019-03-29T11:35:36.498Z,13.80
2019-03-29T11:38:05.765Z,13.80
2019-03-29T11:40:35.184Z,13.80
2019-03-29T11:43:05.355Z,13.90
2019-03-29T11:45:34.529Z,13.90
2019-03-29T11:48:08.875Z,14.00
2019-03-29T11:50:34.918Z,14.00
2019-03-29T11:53:04.106Z,14.00
2019-03-29T11:55:33.602Z,14.00
2019-03-29T11:58:03.575Z,14.10
2019-03-29T12:00:35.142Z,14.10
2019-03-29T12:03:04.757Z,14.10
2019-03-29T12:05:36.200Z,14.10
2019-03-29T12:08:05.242Z,14.20
2019-03-29T12:10:34.507Z,14.20
2019-03-29T12:13:03.819Z,14.20
2019-03-29T12:15:33.252Z,14.30
2019-03-29T12:18:02.491Z,14.30
2019-03-29T12:20:31.753Z,14.40
2019-03-29T12:23:02.631Z,14.40
2019-03-29T12:25:44.919Z,14.50
2019-03-29T12:28:14.222Z,14.50
2019-03-29T12:30:43.486Z,14.60
2019-03-29T12:33:12.730Z,14.70
2019-03-29T12:35:41.987Z,14.70
2019-03-29T12:38:11.227Z,14.80
2019-03-29T12:40:40.491Z,14.90
2019-03-29T12:43:12.360Z,15.00
2019-03-29T12:45:40.607Z,15.10
2019-03-29T12:48:10.216Z,15.20
2019-03-29T12:50:39.478Z,15.30
2019-03-29T12:53:08.730Z,15.40
2019-03-29T12:55:37.991Z,15.40
2019-03-29T12:58:08.307Z,15.40
2019-03-29T13:00:37.565Z,15.40
2019-03-29T13:03:06.805Z,15.40
2019-03-29T13:05:36.071Z,15.40
2019-03-29T13:08:05.307Z,15.50
2019-03-29T13:10:34.574Z,15.50
2019-03-29T13:13:03.814Z,15.50
2019-03-29T13:15:33.070Z,15.60
2019-03-29T13:18:02.310Z,15.60
2019-03-29T13:20:31.570Z,15.60
2019-03-29T13:23:00.816Z,15.60
2019-03-29T13:25:30.079Z,15.60
2019-03-29T13:27:59.751Z,15.70
2019-03-29T13:30:29.086Z,15.70
2019-03-29T13:32:58.328Z,15.70
2019-03-29T13:35:28.540Z,15.70
2019-03-29T13:37:57.775Z,15.90
2019-03-29T13:40:27.049Z,16.00
2019-03-29T13:42:56.285Z,16.10
2019-03-29T13:45:27.879Z,16.10
2019-03-29T13:47:56.423Z,16.20
2019-03-29T13:50:25.682Z,16.20
2019-03-29T13:52:54.927Z,16.20
2019-03-29T13:55:24.186Z,16.20
2019-03-29T13:57:53.422Z,16.10
2019-03-29T14:00:22.684Z,16.10
2019-03-29T14:02:51.921Z,16.10
2019-03-29T14:05:21.177Z,16.10
2019-03-29T14:07:50.426Z,16.10
2019-03-29T14:10:19.686Z,16.20
2019-03-29T14:12:48.935Z,16.20
2019-03-29T14:15:18.198Z,16.20
2019-03-29T14:17:47.434Z,16.30
2019-03-29T14:20:21.481Z,16.30
2019-03-29T14:22:51.178Z,16.40
2019-03-29T14:25:20.438Z,16.40
2019-03-29T14:27:50.746Z,16.50
2019-03-29T14:30:20.011Z,16.50
2019-03-29T14:32:49.247Z,16.50
2019-03-29T14:35:18.759Z,16.50
2019-03-29T14:37:47.994Z,16.50
2019-03-29T14:40:17.233Z,16.60
2019-03-29T14:42:46.495Z,16.60
2019-03-29T14:45:15.802Z,16.70
2019-03-29T14:47:45.071Z,16.70
2019-03-29T14:50:14.306Z,16.70
2019-03-29T14:52:43.570Z,16.70
2019-03-29T14:55:12.814Z,16.70
2019-03-29T14:57:43.150Z,16.80
2019-03-29T15:00:12.869Z,16.80
2019-03-29T15:02:42.199Z,16.80
2019-03-29T15:05:11.437Z,16.80
2019-03-29T15:07:41.771Z,16.80
2019-03-29T15:10:23.255Z,16.90
2019-03-29T15:12:52.779Z,16.90
2019-03-29T15:15:22.026Z,16.90
2019-03-29T15:17:51.284Z,16.90
2019-03-29T15:20:20.531Z,16.90
2019-03-29T15:22:49.786Z,17.00
2019-03-29T15:25:19.025Z,17.00
2019-03-29T15:27:49.262Z,17.10
2019-03-29T15:30:18.511Z,17.10
2019-03-29T15:32:47.779Z,17.10
2019-03-29T15:35:17.027Z,17.20
2019-03-29T15:37:46.285Z,17.20
2019-03-29T15:40:15.825Z,17.20
2019-03-29T15:42:45.097Z,17.20
2019-03-29T15:45:20.164Z,17.20
2019-03-29T15:47:45.223Z,17.20
2019-03-29T15:50:14.462Z,17.20
2019-03-29T15:52:43.721Z,17.30
2019-03-29T15:55:12.966Z,17.30
2019-03-29T15:57:42.225Z,17.30
2019-03-29T16:00:11.642Z,17.30
2019-03-29T16:02:40.974Z,17.30
2019-03-29T16:05:10.214Z,17.30
2019-03-29T16:07:39.484Z,17.40
2019-03-29T16:10:08.724Z,17.40
2019-03-29T16:12:37.989Z,17.40
2019-03-29T16:15:07.231Z,17.50
2019-03-29T16:17:36.490Z,17.50
2019-03-29T16:20:08.389Z,17.60
2019-03-29T16:22:37.659Z,17.70
2019-03-29T16:25:07.262Z,17.80
2019-03-29T16:27:36.535Z,18.10
2019-03-29T16:30:06.539Z,18.30
2019-03-29T16:32:36.337Z,18.60
2019-03-29T16:35:08.528Z,19.00
2019-03-29T16:37:37.790Z,19.30
2019-03-29T16:40:07.675Z,19.60
2019-03-29T16:42:37.019Z,20.00
2019-03-29T16:45:06.965Z,20.40
2019-03-29T16:47:36.223Z,20.60
2019-03-29T16:50:06.835Z,20.90
2019-03-29T16:52:37.142Z,21.20
2019-03-29T16:55:13.418Z,21.40
2019-03-29T16:57:38.074Z,21.50
2019-03-29T17:00:12.417Z,21.70
2019-03-29T17:02:41.485Z,21.80
2019-03-29T17:05:12.083Z,21.90
2019-03-29T17:07:41.321Z,22.00
2019-03-29T17:10:10.586Z,22.00
2019-03-29T17:12:39.846Z,22.10
2019-03-29T17:15:09.098Z,22.00
2019-03-29T17:17:38.331Z,21.80
2019-03-29T17:20:07.602Z,21.50
2019-03-29T17:22:36.912Z,21.10
2019-03-29T17:25:06.859Z,20.70
2019-03-29T17:27:36.078Z,20.40
2019-03-29T17:30:08.378Z,20.00
2019-03-29T17:32:37.623Z,19.50
2019-03-29T17:35:07.855Z,19.20
2019-03-29T17:37:37.166Z,18.80
2019-03-29T17:40:07.708Z,18.50
2019-03-29T17:42:36.942Z,18.30
2019-03-29T17:45:07.658Z,18.10
2019-03-29T17:47:36.903Z,17.90
2019-03-29T17:50:06.235Z,17.70
2019-03-29T17:52:37.241Z,17.50
2019-03-29T17:55:06.572Z,17.30
2019-03-29T17:57:35.892Z,17.10
2019-03-29T18:00:12.621Z,16.90
2019-03-29T18:02:41.859Z,16.70
2019-03-29T18:05:11.050Z,16.50
2019-03-29T18:07:40.290Z,16.40
2019-03-29T18:10:09.558Z,16.20
2019-03-29T18:12:38.798Z,16.10
2019-03-29T18:15:09.270Z,15.90
2019-03-29T18:17:38.515Z,15.80
2019-03-29T18:20:08.317Z,15.70
2019-03-29T18:22:37.571Z,15.60
2019-03-29T18:25:07.196Z,15.50
2019-03-29T18:27:36.431Z,15.40
2019-03-29T18:30:11.142Z,15.30
2019-03-29T18:32:40.398Z,15.20
2019-03-29T18:35:09.830Z,15.10
2019-03-29T18:37:39.439Z,15.00
2019-03-29T18:40:14.715Z,14.90
2019-03-29T18:42:43.887Z,14.80
2019-03-29T18:45:13.151Z,14.80
2019-03-29T18:47:42.402Z,14.70
2019-03-29T18:50:11.682Z,14.60
2019-03-29T18:52:42.727Z,14.50
2019-03-29T18:55:11.822Z,14.50
2019-03-29T18:57:41.139Z,14.30
2019-03-29T19:00:10.409Z,14.30
2019-03-29T19:02:39.734Z,14.20
2019-03-29T19:05:14.283Z,14.10
2019-03-29T19:07:43.523Z,14.10
2019-03-29T19:10:12.934Z,14.00
2019-03-29T19:12:42.198Z,13.90
2019-03-29T19:15:11.442Z,13.90
2019-03-29T19:17:40.710Z,13.80
2019-03-29T19:20:10.988Z,13.80
2019-03-29T19:22:40.428Z,13.80
2019-03-29T19:25:09.667Z,13.70
2019-03-29T19:27:38.936Z,13.70
2019-03-29T19:30:11.117Z,13.60
2019-03-29T19:32:40.380Z,13.60
2019-03-29T19:35:10.587Z,13.60
2019-03-29T19:37:39.889Z,13.50
2019-03-29T19:40:09.155Z,13.50
2019-03-29T19:42:38.422Z,13.50
2019-03-29T19:45:09.874Z,13.40
2019-03-29T19:47:39.151Z,13.40
2019-03-29T19:50:08.382Z,13.30
2019-03-29T19:52:37.646Z,13.30
2019-03-29T19:55:06.897Z,13.30
2019-03-29T19:57:37.274Z,13.20
2019-03-29T20:00:09.943Z,13.20
2019-03-29T20:02:39.244Z,13.20
2019-03-29T20:05:11.814Z,13.10
2019-03-29T20:07:41.079Z,13.10
2019-03-29T20:10:10.326Z,13.00
2019-03-29T20:12:39.590Z,13.00
2019-03-29T20:15:08.777Z,13.00
2019-03-29T20:17:37.971Z,12.90
2019-03-29T20:20:07.215Z,12.80
2019-03-29T20:22:36.489Z,12.80
2019-03-29T20:25:06.371Z,12.70
2019-03-29T20:27:35.637Z,12.70
2019-03-29T20:30:07.290Z,12.60
2019-03-29T20:32:36.495Z,12.60
2019-03-29T20:35:06.814Z,12.50
2019-03-29T20:37:37.129Z,12.50
2019-03-29T20:40:08.537Z,12.40
2019-03-29T20:42:37.803Z,12.40
2019-03-29T20:45:09.751Z,12.30
2019-03-29T20:47:42.292Z,12.30
2019-03-29T20:50:09.878Z,12.20
2019-03-29T20:52:39.142Z,12.20
2019-03-29T20:55:08.310Z,12.10
2019-03-29T20:57:37.569Z,12.00
2019-03-29T21:00:07.173Z,12.00
2019-03-29T21:02:37.502Z,11.90
2019-03-29T21:05:06.813Z,11.80
2019-03-29T21:07:36.074Z,11.80
2019-03-29T21:10:08.390Z,11.70
2019-03-29T21:12:37.661Z,11.70
2019-03-29T21:15:08.046Z,11.60
2019-03-29T21:17:37.374Z,11.60
2019-03-29T21:20:07.585Z,11.50
2019-03-29T21:22:37.020Z,11.50
2019-03-29T21:25:06.729Z,11.40
2019-03-29T21:27:36.334Z,11.40
2019-03-29T21:30:08.210Z,11.30
2019-03-29T21:32:37.522Z,11.30
2019-03-29T21:35:07.407Z,11.20
2019-03-29T21:37:36.854Z,11.20
2019-03-29T21:40:09.050Z,11.10
2019-03-29T21:42:38.401Z,11.10
2019-03-29T21:45:08.050Z,11.00
2019-03-29T21:47:37.377Z,11.00
2019-03-29T21:50:08.598Z,10.90
2019-03-29T21:52:37.886Z,10.90
2019-03-29T21:55:07.435Z,10.90
2019-03-29T21:57:37.762Z,10.80
2019-03-29T22:00:09.834Z,10.80
2019-03-29T22:02:39.143Z,10.80
2019-03-29T22:05:10.432Z,10.70
2019-03-29T22:07:39.275Z,10.70
2019-03-29T22:10:08.543Z,10.70
2019-03-29T22:12:37.886Z,10.70
2019-03-29T22:15:08.845Z,10.60
2019-03-29T22:17:38.358Z,10.60
2019-03-29T22:20:08.193Z,10.50
2019-03-29T22:22:37.702Z,10.50
2019-03-29T22:25:07.630Z,10.50
2019-03-29T22:27:37.077Z,10.50
2019-03-29T22:30:08.938Z,10.40
2019-03-29T22:32:38.184Z,10.40
2019-03-29T22:35:07.817Z,10.40
2019-03-29T22:37:38.050Z,10.30
2019-03-29T22:40:08.100Z,10.30
2019-03-29T22:42:37.317Z,10.20
2019-03-29T22:45:07.217Z,10.20
2019-03-29T22:47:36.467Z,10.20
2019-03-29T22:50:06.567Z,10.10
2019-03-29T22:52:35.810Z,10.10
2019-03-29T22:55:06.726Z,10.10
2019-03-29T22:57:36.929Z,10.00
2019-03-29T23:00:18.590Z,10.00
2019-03-29T23:02:49.706Z,10.00
2019-03-29T23:05:18.965Z,9.90
2019-03-29T23:07:48.206Z,9.90
2019-03-29T23:10:17.466Z,9.80
2019-03-29T23:12:46.712Z,9.80
2019-03-29T23:15:15.977Z,9.80
2019-03-29T23:17:45.215Z,9.70
2019-03-29T23:20:15.401Z,9.70
2019-03-29T23:22:44.566Z,9.70
2019-03-29T23:25:14.202Z,9.60
2019-03-29T23:27:43.506Z,9.60
2019-03-29T23:30:12.767Z,9.60
2019-03-29T23:32:42.002Z,9.50
2019-03-29T23:35:11.263Z,9.50
2019-03-29T23:37:40.501Z,9.50
2019-03-29T23:40:09.838Z,9.40
2019-03-29T23:42:39.078Z,9.40
2019-03-29T23:45:08.358Z,9.40
2019-03-29T23:47:37.596Z,9.40
2019-03-29T23:50:06.834Z,9.30
2019-03-29T23:52:36.164Z,9.30
2019-03-29T23:55:06.414Z,9.30
2019-03-29T23:57:35.670Z,9.30
